createdAt,value
2023-03-06T00:00:06.525Z,60.13
2023-03-06T00:01:34.859Z,60.70
2023-03-06T00:02:37.784Z,60.38
2023-03-06T00:03:40.643Z,60.32
2023-03-06T00:04:43.500Z,60.27
2023-03-06T00:05:46.658Z,60.46
2023-03-06T00:06:49.762Z,60.38
2023-03-06T00:07:52.707Z,59.76
2023-03-06T00:08:55.756Z,59.90
2023-03-06T00:09:58.609Z,60.38
2023-03-06T00:11:01.603Z,60.54
2023-03-06T00:12:04.687Z,60.65
2023-03-06T00:13:12.050Z,60.72
2023-03-06T00:14:16.078Z,60.95
2023-03-06T00:15:19.740Z,60.80
2023-03-06T00:16:23.419Z,60.63
2023-03-06T00:17:28.076Z,60.80
2023-03-06T00:18:30.864Z,60.75
2023-03-06T00:19:33.661Z,60.44
2023-03-06T00:20:37.176Z,60.53
2023-03-06T00:21:41.880Z,60.80
2023-03-06T00:22:45.064Z,60.55
2023-03-06T00:23:47.906Z,60.88
2023-03-06T00:24:53.816Z,60.90
2023-03-06T00:25:56.706Z,60.96
2023-03-06T00:26:59.740Z,61.07
2023-03-06T00:28:02.585Z,60.64
2023-03-06T00:29:05.677Z,60.47
2023-03-06T00:30:11.931Z,60.71
2023-03-06T00:31:14.928Z,60.64
2023-03-06T00:32:17.911Z,60.78
2023-03-06T00:33:20.961Z,60.93
2023-03-06T00:34:23.906Z,61.33
2023-03-06T00:35:26.845Z,61.00
2023-03-06T00:36:29.953Z,61.16
2023-03-06T00:37:33.282Z,60.72
2023-03-06T00:38:37.335Z,60.87
2023-03-06T00:39:40.292Z,61.34
2023-03-06T00:40:43.599Z,61.15
2023-03-06T00:41:47.151Z,61.13
2023-03-06T00:42:50.101Z,60.99
2023-03-06T00:43:55.349Z,61.24
2023-03-06T00:44:58.223Z,60.63
2023-03-06T00:46:01.096Z,61.18
2023-03-06T00:47:04.201Z,60.99
2023-03-06T00:48:07.160Z,60.82
2023-03-06T00:49:10.125Z,61.07
2023-03-06T00:50:13.229Z,61.03
2023-03-06T00:51:17.320Z,61.03
2023-03-06T00:52:20.536Z,60.99
2023-03-06T00:53:23.527Z,60.95
2023-03-06T00:54:26.675Z,60.96
2023-03-06T00:55:31.138Z,60.48
2023-03-06T00:56:34.251Z,60.96
2023-03-06T00:57:37.396Z,61.19
2023-03-06T00:58:40.508Z,61.31
2023-03-06T00:59:43.705Z,61.19
2023-03-06T01:00:47.005Z,61.52
2023-03-06T01:01:50.663Z,61.32
2023-03-06T01:02:54.219Z,61.02
2023-03-06T01:03:58.360Z,61.18
2023-03-06T01:05:01.735Z,60.81
2023-03-06T01:06:04.663Z,60.89
2023-03-06T01:07:10.838Z,60.70
2023-03-06T01:08:16.316Z,61.27
2023-03-06T01:09:19.396Z,61.25
2023-03-06T01:10:22.614Z,60.58
2023-03-06T01:11:25.696Z,61.00
2023-03-06T01:12:28.546Z,61.03
2023-03-06T01:13:31.642Z,60.75
2023-03-06T01:14:34.677Z,60.73
2023-03-06T01:15:38.354Z,60.99
2023-03-06T01:16:41.316Z,61.01
2023-03-06T01:17:45.751Z,61.44
2023-03-06T01:18:50.119Z,61.16
2023-03-06T01:19:53.175Z,60.97
2023-03-06T01:20:58.165Z,61.20
2023-03-06T01:22:01.011Z,61.26
2023-03-06T01:23:03.880Z,61.02
2023-03-06T01:24:07.250Z,60.98
2023-03-06T01:25:11.082Z,61.25
2023-03-06T01:26:14.305Z,60.91
2023-03-06T01:27:17.125Z,61.02
2023-03-06T01:28:20.129Z,61.11
2023-03-06T01:29:23.203Z,61.29
2023-03-06T01:30:27.439Z,61.29
2023-03-06T01:31:30.671Z,61.09
2023-03-06T01:32:33.788Z,61.24
2023-03-06T01:33:37.080Z,61.22
2023-03-06T01:34:40.207Z,61.14
2023-03-06T01:35:43.398Z,61.47
2023-03-06T01:36:46.406Z,61.38
2023-03-06T01:37:49.381Z,60.88
2023-03-06T01:38:52.328Z,61.15
2023-03-06T01:39:55.643Z,61.31
2023-03-06T01:40:58.559Z,61.47
2023-03-06T01:42:02.750Z,61.25
2023-03-06T01:43:26.112Z,61.38
2023-03-06T01:44:29.044Z,61.61
2023-03-06T01:45:34.781Z,61.68
2023-03-06T01:46:44.206Z,61.56
2023-03-06T01:47:47.305Z,61.43
2023-03-06T01:48:54.934Z,61.82
2023-03-06T01:50:00.951Z,61.56
2023-03-06T01:51:04.046Z,61.60
2023-03-06T01:52:18.270Z,61.83
2023-03-06T01:53:21.487Z,61.28
2023-03-06T01:54:35.611Z,61.88
2023-03-06T01:55:38.736Z,62.16
2023-03-06T01:56:45.375Z,61.99
2023-03-06T01:57:55.104Z,62.42
2023-03-06T01:58:59.663Z,62.14
2023-03-06T02:00:08.467Z,61.80
2023-03-06T02:01:19.152Z,61.78
2023-03-06T02:02:22.420Z,61.84
2023-03-06T02:03:27.280Z,62.10
2023-03-06T02:04:30.559Z,62.08
2023-03-06T02:05:34.072Z,62.14
2023-03-06T02:06:40.016Z,62.29
2023-03-06T02:07:44.394Z,62.46
2023-03-06T02:08:52.294Z,62.56
2023-03-06T02:09:55.397Z,62.60
2023-03-06T02:11:25.866Z,62.46
2023-03-06T02:12:28.817Z,62.67
2023-03-06T02:13:32.070Z,62.30
2023-03-06T02:14:35.226Z,62.35
2023-03-06T02:15:38.795Z,62.18
2023-03-06T02:16:42.973Z,61.97
2023-03-06T02:17:48.344Z,62.22
2023-03-06T02:18:52.161Z,62.20
2023-03-06T02:20:02.670Z,62.46
2023-03-06T02:21:09.689Z,62.30
2023-03-06T02:22:12.893Z,61.89
2023-03-06T02:23:37.380Z,62.18
2023-03-06T02:24:52.546Z,62.28
2023-03-06T02:25:56.481Z,62.01
2023-03-06T02:27:03.242Z,62.46
2023-03-06T02:28:11.278Z,61.87
2023-03-06T02:29:21.997Z,62.07
2023-03-06T02:32:00.545Z,62.84
2023-03-06T02:33:05.432Z,62.65
2023-03-06T02:34:14.621Z,62.51
2023-03-06T02:35:22.168Z,62.60
2023-03-06T02:36:25.073Z,62.84
2023-03-06T02:37:29.381Z,62.82
2023-03-06T02:38:44.638Z,62.54
2023-03-06T02:39:53.374Z,61.91
2023-03-06T02:40:58.163Z,62.16
2023-03-06T02:42:02.947Z,62.23
2023-03-06T02:43:07.747Z,62.29
2023-03-06T02:44:10.632Z,62.37
2023-03-06T02:45:15.686Z,62.40
2023-03-06T02:46:18.791Z,62.52
2023-03-06T02:47:22.091Z,62.77
2023-03-06T02:48:25.702Z,62.51
2023-03-06T02:49:28.551Z,61.89
2023-03-06T02:50:32.276Z,62.12
2023-03-06T02:51:37.219Z,62.68
2023-03-06T02:52:40.034Z,62.60
2023-03-06T02:53:43.018Z,62.40
2023-03-06T02:54:45.984Z,61.90
2023-03-06T02:55:50.402Z,62.19
2023-03-06T02:56:53.388Z,62.09
2023-03-06T02:57:56.250Z,61.98
2023-03-06T02:58:59.317Z,62.21
2023-03-06T03:00:02.221Z,62.42
2023-03-06T03:01:05.759Z,62.47
2023-03-06T03:02:09.678Z,62.79
2023-03-06T03:03:12.795Z,62.40
2023-03-06T03:04:15.662Z,62.47
2023-03-06T03:05:18.991Z,62.41
2023-03-06T03:06:24.449Z,62.44
2023-03-06T03:07:27.532Z,62.29
2023-03-06T03:08:30.980Z,62.42
2023-03-06T03:09:37.267Z,62.49
2023-03-06T03:10:40.288Z,62.26
2023-03-06T03:11:43.121Z,62.27
2023-03-06T03:12:46.307Z,62.36
2023-03-06T03:13:49.439Z,62.07
2023-03-06T03:14:56.822Z,62.24
2023-03-06T03:16:07.334Z,62.27
2023-03-06T03:17:10.471Z,62.44
2023-03-06T03:18:13.432Z,62.60
2023-03-06T03:19:16.301Z,62.53
2023-03-06T03:20:21.542Z,62.54
2023-03-06T03:21:24.604Z,62.49
2023-03-06T03:22:29.448Z,62.22
2023-03-06T03:23:32.738Z,62.21
2023-03-06T03:24:35.751Z,62.46
2023-03-06T03:25:38.930Z,62.31
2023-03-06T03:26:41.863Z,62.42
2023-03-06T03:27:48.728Z,62.39
2023-03-06T03:28:51.634Z,62.36
2023-03-06T03:29:58.069Z,62.49
2023-03-06T03:31:09.742Z,62.54
2023-03-06T03:32:12.888Z,62.61
2023-03-06T03:33:17.275Z,62.53
2023-03-06T03:34:20.628Z,62.29
2023-03-06T03:35:23.781Z,62.22
2023-03-06T03:36:27.509Z,62.43
2023-03-06T03:37:30.798Z,62.27
2023-03-06T03:38:34.844Z,62.18
2023-03-06T03:39:37.676Z,61.94
2023-03-06T03:40:40.685Z,62.12
2023-03-06T03:41:43.877Z,62.00
2023-03-06T03:42:47.120Z,62.06
2023-03-06T03:43:50.051Z,61.79
2023-03-06T03:44:53.435Z,62.14
2023-03-06T03:45:57.014Z,62.16
2023-03-06T03:47:00.153Z,62.33
2023-03-06T03:48:03.366Z,62.28
2023-03-06T03:49:06.619Z,62.35
2023-03-06T03:50:10.614Z,62.14
2023-03-06T03:51:16.623Z,62.47
2023-03-06T03:52:22.761Z,62.54
2023-03-06T03:53:25.836Z,62.01
2023-03-06T03:54:29.039Z,62.15
2023-03-06T03:55:32.576Z,61.85
2023-03-06T03:56:35.872Z,62.31
2023-03-06T03:57:43.382Z,62.22
2023-03-06T03:58:46.728Z,61.83
2023-03-06T03:59:50.330Z,62.20
2023-03-06T04:01:03.480Z,62.40
2023-03-06T04:02:06.710Z,62.59
2023-03-06T04:03:13.892Z,62.41
2023-03-06T04:04:19.247Z,62.50
2023-03-06T04:05:22.129Z,62.40
2023-03-06T04:06:25.367Z,62.12
2023-03-06T04:07:28.539Z,62.35
2023-03-06T04:08:32.102Z,62.40
2023-03-06T04:09:35.451Z,62.21
2023-03-06T04:10:39.534Z,62.41
2023-03-06T04:11:43.521Z,62.38
2023-03-06T04:12:46.789Z,62.51
2023-03-06T04:13:49.757Z,62.47
2023-03-06T04:14:53.444Z,62.25
2023-03-06T04:15:56.539Z,62.34
2023-03-06T04:16:59.847Z,62.46
2023-03-06T04:18:02.800Z,62.39
2023-03-06T04:19:05.857Z,62.24
2023-03-06T04:20:10.041Z,62.40
2023-03-06T04:21:13.347Z,62.38
2023-03-06T04:22:16.482Z,62.26
2023-03-06T04:23:19.895Z,61.87
2023-03-06T04:24:22.848Z,61.98
2023-03-06T04:25:26.155Z,62.28
2023-03-06T04:26:29.044Z,62.26
2023-03-06T04:27:31.968Z,62.02
2023-03-06T04:28:35.644Z,62.14
2023-03-06T04:29:38.811Z,61.86
2023-03-06T04:30:42.419Z,61.80
2023-03-06T04:31:45.419Z,61.80
2023-03-06T04:32:48.726Z,62.16
2023-03-06T04:33:51.633Z,62.15
2023-03-06T04:34:54.458Z,62.24
2023-03-06T04:35:58.140Z,62.18
2023-03-06T04:37:03.440Z,62.31
2023-03-06T04:38:06.405Z,62.33
2023-03-06T04:39:09.944Z,62.28
2023-03-06T04:40:22.177Z,62.29
2023-03-06T04:41:25.740Z,62.35
2023-03-06T04:42:28.936Z,62.26
2023-03-06T04:43:31.834Z,62.11
2023-03-06T04:44:34.979Z,61.87
2023-03-06T04:45:37.915Z,61.87
2023-03-06T04:46:41.050Z,61.99
2023-03-06T04:47:44.049Z,62.12
2023-03-06T04:48:47.540Z,62.08
2023-03-06T04:49:50.410Z,62.00
2023-03-06T04:50:53.286Z,62.03
2023-03-06T04:51:56.562Z,62.03
2023-03-06T04:53:03.614Z,62.15
2023-03-06T04:54:06.853Z,61.86
2023-03-06T04:55:13.459Z,62.15
2023-03-06T04:56:16.467Z,62.22
2023-03-06T04:57:19.714Z,61.92
2023-03-06T04:58:22.877Z,61.61
2023-03-06T04:59:26.193Z,62.07
2023-03-06T05:00:30.616Z,61.98
2023-03-06T05:01:33.572Z,62.11
2023-03-06T05:02:36.961Z,62.10
2023-03-06T05:03:39.898Z,62.16
2023-03-06T05:04:43.692Z,61.95
2023-03-06T05:05:46.854Z,62.05
2023-03-06T05:06:49.891Z,62.14
2023-03-06T05:07:53.614Z,62.02
2023-03-06T05:08:57.126Z,62.26
2023-03-06T05:10:00.705Z,62.22
2023-03-06T05:11:04.122Z,61.98
2023-03-06T05:12:07.572Z,62.12
2023-03-06T05:13:13.688Z,62.26
2023-03-06T05:14:16.672Z,62.26
2023-03-06T05:15:19.940Z,62.21
2023-03-06T05:16:22.922Z,62.34
2023-03-06T05:17:26.210Z,62.17
2023-03-06T05:18:29.957Z,61.92
2023-03-06T05:19:32.810Z,62.29
2023-03-06T05:20:36.025Z,62.20
2023-03-06T05:21:38.966Z,62.18
2023-03-06T05:22:42.442Z,62.44
2023-03-06T05:25:03.120Z,62.34
2023-03-06T05:26:11.101Z,62.45
2023-03-06T05:27:16.562Z,62.50
2023-03-06T05:28:19.871Z,62.43
2023-03-06T05:29:23.034Z,62.47
2023-03-06T05:30:26.108Z,62.62
2023-03-06T05:31:29.171Z,62.51
2023-03-06T05:32:34.408Z,62.57
2023-03-06T05:33:38.728Z,62.46
2023-03-06T05:34:41.964Z,62.21
2023-03-06T05:35:48.621Z,62.44
2023-03-06T05:36:51.493Z,62.64
2023-03-06T05:37:54.405Z,62.46
2023-03-06T05:38:57.916Z,62.50
2023-03-06T05:40:00.888Z,62.53
2023-03-06T05:41:03.965Z,62.61
2023-03-06T05:42:07.157Z,62.36
2023-03-06T05:43:11.914Z,62.34
2023-03-06T05:44:14.886Z,62.44
2023-03-06T05:45:18.111Z,62.23
2023-03-06T05:46:21.211Z,62.48
2023-03-06T05:47:24.110Z,62.38
2023-03-06T05:48:27.076Z,62.45
2023-03-06T05:49:36.551Z,62.29
2023-03-06T05:50:40.446Z,62.37
2023-03-06T05:51:43.633Z,62.43
2023-03-06T05:52:46.501Z,62.37
2023-03-06T05:53:49.509Z,62.43
2023-03-06T05:54:54.785Z,62.27
2023-03-06T05:56:03.976Z,62.31
2023-03-06T05:57:06.856Z,62.27
2023-03-06T05:58:09.700Z,62.23
2023-03-06T05:59:12.513Z,62.28
2023-03-06T06:00:16.679Z,62.16
2023-03-06T06:01:21.178Z,62.26
2023-03-06T06:02:24.071Z,62.18
2023-03-06T06:03:27.171Z,62.08
2023-03-06T06:04:30.147Z,62.03
2023-03-06T06:05:33.051Z,61.97
2023-03-06T06:06:36.117Z,61.78
2023-03-06T06:07:39.101Z,61.64
2023-03-06T06:08:42.462Z,61.48
2023-03-06T06:09:45.713Z,61.45
2023-03-06T06:10:50.939Z,61.35
2023-03-06T06:12:01.655Z,61.28
2023-03-06T06:13:04.669Z,61.15
2023-03-06T06:14:07.517Z,60.75
2023-03-06T06:15:10.482Z,60.36
2023-03-06T06:16:16.902Z,60.32
2023-03-06T06:17:20.046Z,60.14
2023-03-06T06:18:22.902Z,60.06
2023-03-06T06:19:28.625Z,59.91
2023-03-06T06:20:31.653Z,59.91
2023-03-06T06:21:35.105Z,59.98
2023-03-06T06:22:38.519Z,59.84
2023-03-06T06:23:41.697Z,59.84
2023-03-06T06:24:44.710Z,59.82
2023-03-06T06:25:47.582Z,59.81
2023-03-06T06:26:55.330Z,59.79
2023-03-06T06:27:58.396Z,59.71
2023-03-06T06:29:01.242Z,59.49
2023-03-06T06:30:05.960Z,59.57
2023-03-06T06:31:13.448Z,59.34
2023-03-06T06:32:16.454Z,58.69
2023-03-06T06:33:19.589Z,58.41
2023-03-06T06:34:25.425Z,58.53
2023-03-06T06:35:28.493Z,58.57
2023-03-06T06:36:31.861Z,59.41
2023-03-06T06:37:34.722Z,60.01
2023-03-06T06:38:37.657Z,60.02
2023-03-06T06:39:40.690Z,60.88
2023-03-06T06:40:43.507Z,61.36
2023-03-06T06:42:05.587Z,61.27
2023-03-06T06:43:14.204Z,61.05
2023-03-06T06:44:18.487Z,61.53
2023-03-06T06:45:21.266Z,61.80
2023-03-06T06:47:14.358Z,61.85
2023-03-06T06:47:50.017Z,61.65
2023-03-06T06:48:56.768Z,61.84
2023-03-06T06:49:59.899Z,61.46
2023-03-06T06:51:02.807Z,62.19
2023-03-06T06:52:06.346Z,62.34
2023-03-06T06:53:09.170Z,61.83
2023-03-06T06:54:12.765Z,62.41
2023-03-06T06:55:16.079Z,62.66
2023-03-06T06:56:19.066Z,62.68
2023-03-06T06:57:22.264Z,62.60
2023-03-06T06:58:25.688Z,62.19
2023-03-06T06:59:28.699Z,61.13
2023-03-06T07:00:31.608Z,60.57
2023-03-06T07:01:34.514Z,60.50
2023-03-06T07:02:37.421Z,59.26
2023-03-06T07:03:41.229Z,58.58
2023-03-06T07:05:00.728Z,57.65
2023-03-06T07:06:07.316Z,57.22
2023-03-06T07:07:10.353Z,57.47
2023-03-06T07:08:13.168Z,57.95
2023-03-06T07:09:16.500Z,57.89
2023-03-06T07:10:20.951Z,58.52
2023-03-06T07:11:24.105Z,59.23
2023-03-06T07:12:26.958Z,59.28
2023-03-06T07:13:29.922Z,59.16
2023-03-06T07:14:32.783Z,59.36
2023-03-06T07:15:35.675Z,59.38
2023-03-06T07:16:38.873Z,59.48
2023-03-06T07:17:41.810Z,59.86
2023-03-06T07:18:45.465Z,59.62
2023-03-06T07:19:48.670Z,60.04
2023-03-06T07:20:53.614Z,60.09
2023-03-06T07:21:56.733Z,59.47
2023-03-06T07:22:59.543Z,59.77
2023-03-06T07:24:02.522Z,60.20
2023-03-06T07:25:06.217Z,59.88
2023-03-06T07:26:09.093Z,60.04
2023-03-06T07:27:12.025Z,59.69
2023-03-06T07:28:16.871Z,59.85
2023-03-06T07:29:20.656Z,59.63
2023-03-06T07:30:23.933Z,60.12
2023-03-06T07:31:27.542Z,60.01
2023-03-06T07:32:30.650Z,59.31
2023-03-06T07:33:33.504Z,59.38
2023-03-06T07:34:36.309Z,59.42
2023-03-06T07:35:39.337Z,59.75
2023-03-06T07:36:42.481Z,59.66
2023-03-06T07:37:45.318Z,59.17
2023-03-06T07:38:48.136Z,59.62
2023-03-06T07:39:50.966Z,59.07
2023-03-06T07:40:53.912Z,59.64
2023-03-06T07:41:57.850Z,59.45
2023-03-06T07:43:16.764Z,59.34
2023-03-06T07:44:22.716Z,58.81
2023-03-06T07:45:25.879Z,58.92
2023-03-06T07:46:28.923Z,58.95
2023-03-06T07:47:31.892Z,58.84
2023-03-06T07:48:36.164Z,59.19
2023-03-06T07:49:38.964Z,58.79
2023-03-06T07:50:42.155Z,58.78
2023-03-06T07:51:45.088Z,58.90
2023-03-06T07:52:49.832Z,58.63
2023-03-06T07:53:52.754Z,58.58
2023-03-06T07:54:55.607Z,58.77
2023-03-06T07:55:58.528Z,58.77
2023-03-06T07:57:01.465Z,58.66
2023-03-06T07:58:04.589Z,58.75
2023-03-06T07:59:07.457Z,58.92
2023-03-06T08:00:13.927Z,58.57
2023-03-06T08:01:20.214Z,58.56
2023-03-06T08:02:23.212Z,58.76
2023-03-06T08:03:26.527Z,58.74
2023-03-06T08:04:30.289Z,58.93
2023-03-06T08:05:33.197Z,58.70
2023-03-06T08:06:36.072Z,58.47
2023-03-06T08:07:38.914Z,58.53
2023-03-06T08:08:44.541Z,58.51
2023-03-06T08:09:48.332Z,58.58
2023-03-06T08:10:51.171Z,58.13
2023-03-06T08:11:54.115Z,58.38
2023-03-06T08:12:56.999Z,58.26
2023-03-06T08:14:00.698Z,58.39
2023-03-06T08:15:04.047Z,58.39
2023-03-06T08:16:07.551Z,58.50
2023-03-06T08:17:10.386Z,58.26
2023-03-06T08:18:13.221Z,57.94
2023-03-06T08:19:16.433Z,58.18
2023-03-06T08:20:19.608Z,58.17
2023-03-06T08:21:27.848Z,57.83
2023-03-06T08:22:30.640Z,57.67
2023-03-06T08:23:34.812Z,57.64
2023-03-06T08:24:37.665Z,57.71
2023-03-06T08:25:40.817Z,57.74
2023-03-06T08:26:43.760Z,57.74
2023-03-06T08:27:47.476Z,57.52
2023-03-06T08:28:55.362Z,57.28
2023-03-06T08:29:58.836Z,57.50
2023-03-06T08:31:34.175Z,57.52
2023-03-06T08:32:37.718Z,57.51
2023-03-06T08:33:41.149Z,57.35
2023-03-06T08:34:45.651Z,57.32
2023-03-06T08:35:49.322Z,57.18
2023-03-06T08:36:52.739Z,56.24
2023-03-06T08:37:55.570Z,56.65
2023-03-06T08:38:59.377Z,56.27
2023-03-06T08:40:04.673Z,56.29
2023-03-06T08:41:08.120Z,56.45
2023-03-06T08:42:11.439Z,56.20
2023-03-06T08:43:14.436Z,55.43
2023-03-06T08:44:17.275Z,55.66
2023-03-06T08:45:20.307Z,55.83
2023-03-06T08:46:25.680Z,56.05
2023-03-06T08:47:28.758Z,56.01
2023-03-06T08:48:31.688Z,55.84
2023-03-06T08:49:36.069Z,55.39
2023-03-06T08:50:41.300Z,55.62
2023-03-06T08:51:44.323Z,55.12
2023-03-06T08:52:47.443Z,54.91
2023-03-06T08:53:51.521Z,55.01
2023-03-06T08:54:54.357Z,55.10
2023-03-06T08:55:57.269Z,54.45
2023-03-06T08:57:06.579Z,54.94
2023-03-06T08:58:09.666Z,55.02
2023-03-06T08:59:13.556Z,54.98
2023-03-06T09:00:17.449Z,54.91
2023-03-06T09:01:23.345Z,54.92
2023-03-06T09:02:26.362Z,55.03
2023-03-06T09:03:29.334Z,54.46
2023-03-06T09:04:32.168Z,54.05
2023-03-06T09:05:34.970Z,54.34
2023-03-06T09:06:40.895Z,54.36
2023-03-06T09:07:43.843Z,54.42
2023-03-06T09:08:47.020Z,53.83
2023-03-06T09:09:49.930Z,54.00
2023-03-06T09:10:52.742Z,54.20
2023-03-06T09:11:56.413Z,54.16
2023-03-06T09:12:59.708Z,53.45
2023-03-06T09:14:03.385Z,53.61
2023-03-06T09:15:07.145Z,53.38
2023-03-06T09:16:11.725Z,52.27
2023-03-06T09:17:14.815Z,51.96
2023-03-06T09:18:18.054Z,52.29
2023-03-06T09:19:21.148Z,52.47
2023-03-06T09:20:24.079Z,52.58
2023-03-06T09:21:28.827Z,52.59
2023-03-06T09:22:32.379Z,52.09
2023-03-06T09:23:37.241Z,51.72
2023-03-06T09:24:40.078Z,51.51
2023-03-06T09:25:43.222Z,52.17
2023-03-06T09:26:47.968Z,52.29
2023-03-06T09:28:08.756Z,52.44
2023-03-06T09:29:40.838Z,52.39
2023-03-06T09:30:50.403Z,51.87
2023-03-06T09:34:31.885Z,52.28
2023-03-06T09:35:35.378Z,51.76
2023-03-06T09:36:53.698Z,51.27
2023-03-06T09:37:58.205Z,51.49
2023-03-06T09:39:01.134Z,51.14
2023-03-06T09:40:06.755Z,50.34
2023-03-06T09:41:31.394Z,50.58
2023-03-06T09:42:36.117Z,50.49
2023-03-06T09:43:52.104Z,50.28
2023-03-06T09:44:58.777Z,47.82
2023-03-06T09:46:26.921Z,48.56
2023-03-06T09:47:38.720Z,48.75
2023-03-06T09:48:58.948Z,48.48
2023-03-06T09:50:20.051Z,48.63
2023-03-06T09:51:37.434Z,47.87
2023-03-06T09:53:15.415Z,47.68
2023-03-06T09:54:26.696Z,48.56
2023-03-06T09:55:33.329Z,48.23
2023-03-06T09:56:37.189Z,48.22
2023-03-06T09:57:58.929Z,47.93
2023-03-06T09:59:13.391Z,47.89
2023-03-06T10:00:23.928Z,47.45
2023-03-06T10:01:40.455Z,47.92
2023-03-06T10:03:00.823Z,47.57
2023-03-06T10:04:40.675Z,47.63
2023-03-06T10:05:50.214Z,48.07
2023-03-06T10:06:58.342Z,48.24
2023-03-06T10:08:17.232Z,48.29
2023-03-06T10:09:38.402Z,48.44
2023-03-06T10:10:50.933Z,48.21
2023-03-06T10:12:12.935Z,48.47
2023-03-06T10:13:41.244Z,48.39
2023-03-06T10:14:48.996Z,48.76
2023-03-06T10:16:02.186Z,48.62
2023-03-06T10:17:06.637Z,48.63
2023-03-06T10:18:11.849Z,48.99
2023-03-06T10:19:17.404Z,49.01
2023-03-06T10:20:23.054Z,49.22
2023-03-06T10:21:59.384Z,49.49
2023-03-06T10:23:12.176Z,49.68
2023-03-06T10:24:53.334Z,49.81
2023-03-06T10:26:08.200Z,49.19
2023-03-06T10:27:46.001Z,48.58
2023-03-06T10:28:57.713Z,48.24
2023-03-06T10:30:04.309Z,48.20
2023-03-06T10:31:15.417Z,48.45
2023-03-06T10:32:32.125Z,47.46
2023-03-06T10:33:56.963Z,46.17
2023-03-06T10:35:01.653Z,46.86
2023-03-06T10:36:04.909Z,46.32
2023-03-06T10:37:30.982Z,46.47
2023-03-06T10:38:38.489Z,46.28
2023-03-06T10:39:41.311Z,46.81
2023-03-06T10:41:09.244Z,47.46
2023-03-06T10:42:12.334Z,47.83
2023-03-06T10:43:15.486Z,47.93
2023-03-06T10:44:23.808Z,47.74
2023-03-06T10:45:26.816Z,47.75
2023-03-06T10:46:44.272Z,47.71
2023-03-06T10:47:47.449Z,47.74
2023-03-06T10:48:58.943Z,47.70
2023-03-06T10:50:07.297Z,47.45
2023-03-06T10:51:19.054Z,47.41
2023-03-06T10:52:22.882Z,47.38
2023-03-06T10:53:29.194Z,47.57
2023-03-06T10:54:35.490Z,47.59
2023-03-06T10:55:38.473Z,47.81
2023-03-06T10:56:44.221Z,47.81
2023-03-06T10:57:47.166Z,47.57
2023-03-06T10:59:05.561Z,47.08
2023-03-06T11:00:43.885Z,46.33
2023-03-06T11:01:51.748Z,44.77
2023-03-06T11:03:13.561Z,45.13
2023-03-06T11:04:32.620Z,44.70
2023-03-06T11:05:35.554Z,45.15
2023-03-06T11:06:38.401Z,44.00
2023-03-06T11:07:54.683Z,44.26
2023-03-06T11:09:25.250Z,43.58
2023-03-06T11:10:31.484Z,44.47
2023-03-06T11:11:37.686Z,43.95
2023-03-06T11:12:43.708Z,43.88
2023-03-06T11:13:57.348Z,44.10
2023-03-06T11:15:15.164Z,44.33
2023-03-06T11:16:25.955Z,44.35
2023-03-06T11:17:32.158Z,44.50
2023-03-06T11:18:42.868Z,44.70
2023-03-06T11:19:45.892Z,44.76
2023-03-06T11:20:53.205Z,44.88
2023-03-06T11:22:05.974Z,44.66
2023-03-06T11:23:17.470Z,45.03
2023-03-06T11:24:20.886Z,45.04
2023-03-06T11:25:33.523Z,44.95
2023-03-06T11:26:56.649Z,44.99
2023-03-06T11:28:06.376Z,45.18
2023-03-06T11:29:28.485Z,44.61
2023-03-06T11:30:47.462Z,45.19
2023-03-06T11:32:07.997Z,45.43
2023-03-06T11:33:28.610Z,45.28
2023-03-06T11:34:41.705Z,45.72
2023-03-06T11:35:54.804Z,45.82
2023-03-06T11:37:07.134Z,45.40
2023-03-06T11:38:27.338Z,45.29
2023-03-06T11:39:55.256Z,45.76
2023-03-06T11:41:01.501Z,46.24
2023-03-06T11:42:27.980Z,46.29
2023-03-06T11:44:00.683Z,46.38
2023-03-06T11:45:32.003Z,46.69
2023-03-06T11:46:50.175Z,46.81
2023-03-06T11:48:14.580Z,46.61
2023-03-06T11:49:33.284Z,46.48
2023-03-06T11:51:06.704Z,46.23
2023-03-06T11:52:20.008Z,46.31
2023-03-06T11:53:40.880Z,46.31
2023-03-06T11:54:44.245Z,46.64
2023-03-06T11:56:23.956Z,46.64
2023-03-06T11:57:58.756Z,46.54
2023-03-06T11:59:26.502Z,45.53
2023-03-06T12:00:33.667Z,44.07
2023-03-06T12:01:42.026Z,43.13
2023-03-06T12:03:09.591Z,42.89
2023-03-06T12:04:49.457Z,43.04
2023-03-06T12:06:03.958Z,42.78
2023-03-06T12:07:26.426Z,42.19
2023-03-06T12:09:01.811Z,42.33
2023-03-06T12:10:13.499Z,41.79
2023-03-06T12:11:38.188Z,40.66
2023-03-06T12:13:06.247Z,42.11
2023-03-06T12:14:56.140Z,42.35
2023-03-06T12:16:24.720Z,42.38
2023-03-06T12:17:30.434Z,41.93
2023-03-06T12:18:54.697Z,41.23
2023-03-06T12:20:20.654Z,42.09
2023-03-06T12:21:42.153Z,42.07
2023-03-06T12:22:57.700Z,41.69
2023-03-06T12:24:44.282Z,42.22
2023-03-06T12:26:25.622Z,42.70
2023-03-06T12:27:39.801Z,42.78
2023-03-06T12:29:21.542Z,41.72
2023-03-06T12:30:32.381Z,42.42
2023-03-06T12:31:38.254Z,42.30
2023-03-06T12:32:53.790Z,41.76
2023-03-06T12:34:06.460Z,40.36
2023-03-06T12:35:31.201Z,41.14
2023-03-06T12:36:34.245Z,40.46
2023-03-06T12:37:57.846Z,40.15
2023-03-06T12:39:13.845Z,38.91
2023-03-06T12:40:39.736Z,39.56
2023-03-06T12:41:51.533Z,40.39
2023-03-06T12:43:20.043Z,39.61
2023-03-06T12:44:31.036Z,38.92
2023-03-06T12:45:37.013Z,39.30
2023-03-06T12:46:46.604Z,38.07
2023-03-06T12:47:54.395Z,37.79
2023-03-06T12:49:23.020Z,36.50
2023-03-06T12:50:38.221Z,37.34
2023-03-06T12:51:44.603Z,37.83
2023-03-06T12:52:49.180Z,37.68
2023-03-06T12:53:53.303Z,37.29
2023-03-06T12:54:58.762Z,37.63
2023-03-06T12:56:03.343Z,37.65
2023-03-06T12:57:09.092Z,37.57
2023-03-06T12:58:30.262Z,38.27
2023-03-06T12:59:35.427Z,38.28
2023-03-06T13:01:15.898Z,38.91
2023-03-06T13:02:39.846Z,39.38
2023-03-06T13:03:51.943Z,39.69
2023-03-06T13:05:30.511Z,39.54
2023-03-06T13:06:51.549Z,39.60
2023-03-06T13:07:57.490Z,39.33
2023-03-06T13:09:25.226Z,39.32
2023-03-06T13:10:32.132Z,39.80
2023-03-06T13:11:47.071Z,38.85
2023-03-06T13:12:58.223Z,39.59
2023-03-06T13:14:39.631Z,40.59
2023-03-06T13:16:09.784Z,39.62
2023-03-06T13:17:45.426Z,38.97
2023-03-06T13:19:11.502Z,39.61
2023-03-06T13:20:14.490Z,39.95
2023-03-06T13:21:42.393Z,39.63
2023-03-06T13:22:47.220Z,39.67
2023-03-06T13:23:52.610Z,39.13
2023-03-06T13:25:17.129Z,38.60
2023-03-06T13:26:26.325Z,38.30
2023-03-06T13:28:21.978Z,38.36
2023-03-06T13:29:36.742Z,38.93
2023-03-06T13:30:40.003Z,39.41
2023-03-06T13:31:42.956Z,39.60
2023-03-06T13:32:45.947Z,39.95
2023-03-06T13:33:53.147Z,40.44
2023-03-06T13:34:56.031Z,40.75
2023-03-06T13:36:00.498Z,41.30
2023-03-06T13:37:23.681Z,41.92
2023-03-06T13:38:39.860Z,42.61
2023-03-06T13:39:54.829Z,42.99
2023-03-06T13:41:22.783Z,43.66
2023-03-06T13:42:36.818Z,44.06
2023-03-06T13:43:45.086Z,44.32
2023-03-06T13:44:51.223Z,44.91
2023-03-06T13:45:54.356Z,45.15
2023-03-06T13:47:05.474Z,45.70
2023-03-06T13:48:43.772Z,46.05
2023-03-06T13:49:48.938Z,46.23
2023-03-06T13:50:53.673Z,47.11
2023-03-06T13:51:59.417Z,47.00
2023-03-06T13:53:21.055Z,47.19
2023-03-06T13:54:42.965Z,47.80
2023-03-06T13:56:23.270Z,47.89
2023-03-06T13:58:08.302Z,47.70
2023-03-06T13:59:25.827Z,47.84
2023-03-06T14:00:34.489Z,48.46
2023-03-06T14:02:23.589Z,48.93
2023-03-06T14:03:51.465Z,48.92
2023-03-06T14:05:01.517Z,49.53
2023-03-06T14:06:37.340Z,49.77
2023-03-06T14:07:46.275Z,49.90
2023-03-06T14:08:49.523Z,51.10
2023-03-06T14:10:16.016Z,51.27
2023-03-06T14:11:22.297Z,51.39
2023-03-06T14:12:32.881Z,51.57
2023-03-06T14:13:46.525Z,52.61
2023-03-06T14:15:03.541Z,51.61
2023-03-06T14:16:17.694Z,53.29
2023-03-06T14:17:37.721Z,52.48
2023-03-06T14:18:47.795Z,53.34
2023-03-06T14:19:51.677Z,53.46
2023-03-06T14:21:03.240Z,54.01
2023-03-06T14:22:13.239Z,54.45
2023-03-06T14:23:25.441Z,54.76
2023-03-06T14:24:40.989Z,54.51
2023-03-06T14:25:46.351Z,54.00
2023-03-06T14:26:51.912Z,53.27
2023-03-06T14:28:02.906Z,52.99
2023-03-06T14:29:21.135Z,52.40
2023-03-06T14:30:26.295Z,51.81
2023-03-06T14:31:31.098Z,51.44
2023-03-06T14:32:34.044Z,51.48
2023-03-06T14:33:59.233Z,51.72
2023-03-06T14:35:02.174Z,52.18
2023-03-06T14:36:09.618Z,52.51
2023-03-06T14:37:22.685Z,53.06
2023-03-06T14:38:28.056Z,53.04
2023-03-06T14:39:39.549Z,53.35
2023-03-06T14:40:45.017Z,53.41